Time;durP1;ratioP1;P1;durP2;ratioP2;P2;SDS_P1;SDS_P2;PMS_P1;PMS_P2;Temp;Humidity;BMP_temperature;BMP_pressure;BME280_temperature;BME280_humidity;BME280_pressure;Samples;Min_cycle;Max_cycle;Signal;HPM_P1;HPM_P2
2023/06/28 00:00:05;;;;;;;4.73;2.60;;;15.20;99.90;;;;;;5056831;28;20197;-60
2023/06/28 00:02:35;;;;;;;2.70;2.50;;;15.00;99.90;;;;;;5057214;28;20202;-61
2023/06/28 00:05:03;;;;;;;4.10;2.33;;;15.10;99.90;;;;;;5057351;28;20696;-62
2023/06/28 00:07:28;;;;;;;2.87;2.13;;;15.10;99.90;;;;;;5057095;28;20194;-61
2023/06/28 00:09:54;;;;;;;3.37;2.40;;;15.00;99.90;;;;;;5055289;28;20214;-61
2023/06/28 00:12:21;;;;;;;4.17;2.67;;;14.90;99.90;;;;;;5047551;28;20198;-61
2023/06/28 00:14:46;;;;;;;3.97;2.33;;;14.80;99.90;;;;;;5056233;28;20205;-61
2023/06/28 00:17:12;;;;;;;5.53;2.47;;;14.80;99.90;;;;;;5057516;28;20198;-61
2023/06/28 00:19:47;;;;;;;6.90;2.30;;;14.70;99.90;;;;;;5057208;28;20208;-62
2023/06/28 00:22:14;;;;;;;4.70;2.30;;;14.70;99.90;;;;;;5056770;28;20725;-60
2023/06/28 00:24:39;;;;;;;6.80;3.20;;;14.70;99.90;;;;;;5056810;28;20661;-60
2023/06/28 00:27:05;;;;;;;6.10;2.73;;;14.70;99.90;;;;;;5056105;28;20235;-60
2023/06/28 00:29:30;;;;;;;3.80;2.23;;;14.70;99.90;;;;;;5054206;28;20219;-60
2023/06/28 00:31:56;;;;;;;5.23;2.50;;;14.80;99.90;;;;;;5057256;28;20202;-60
2023/06/28 00:34:21;;;;;;;6.17;2.60;;;14.60;99.90;;;;;;5056668;28;20240;-61
2023/06/28 00:36:47;;;;;;;5.43;2.50;;;14.60;99.90;;;;;;5057082;28;20234;-60
2023/06/28 00:39:12;;;;;;;4.17;2.43;;;14.60;99.90;;;;;;5056143;28;20221;-60
2023/06/28 00:41:38;;;;;;;5.83;2.40;;;14.70;99.90;;;;;;5061905;28;20212;-60
2023/06/28 00:44:05;;;;;;;6.20;3.17;;;14.70;99.90;;;;;;5053550;28;20194;-60
2023/06/28 00:46:30;;;;;;;12.17;11.30;;;14.80;99.90;;;;;;5060756;28;20205;-61
2023/06/28 00:48:56;;;;;;;4.93;4.23;;;14.60;99.90;;;;;;5062159;28;20657;-61
2023/06/28 00:51:22;;;;;;;5.70;3.67;;;14.50;99.90;;;;;;5057851;28;20243;-62
2023/06/28 00:53:48;;;;;;;5.77;2.87;;;14.50;99.90;;;;;;5060563;28;20530;-60
2023/06/28 00:56:14;;;;;;;6.80;3.13;;;14.40;99.90;;;;;;5058986;28;20661;-61
2023/06/28 00:58:40;;;;;;;4.07;2.33;;;14.50;99.90;;;;;;5060760;28;20306;-60
2023/06/28 01:01:06;;;;;;;6.07;2.73;;;14.50;99.90;;;;;;5060708;28;20281;-61
2023/06/28 01:03:31;;;;;;;6.30;2.90;;;14.50;99.90;;;;;;5060465;28;20615;-61
2023/06/28 01:05:58;;;;;;;5.83;2.90;;;14.50;99.90;;;;;;5057375;28;20715;-61
2023/06/28 01:08:25;;;;;;;4.40;2.47;;;14.50;99.90;;;;;;5044877;28;20207;-61
2023/06/28 01:10:51;;;;;;;6.80;2.80;;;14.50;99.90;;;;;;5050588;28;20289;-61
2023/06/28 01:13:18;;;;;;;5.13;2.80;;;14.50;99.90;;;;;;5050836;28;20780;-61
2023/06/28 01:15:44;;;;;;;5.53;3.07;;;14.40;99.90;;;;;;5051070;28;20210;-61
2023/06/28 01:18:10;;;;;;;8.27;3.07;;;14.50;99.90;;;;;;5057486;28;20672;-61
2023/06/28 01:20:35;;;;;;;6.17;2.40;;;14.50;99.90;;;;;;5051577;28;20917;-61
2023/06/28 01:23:02;;;;;;;6.40;2.70;;;14.60;99.90;;;;;;5055394;28;20202;-60
2023/06/28 01:25:27;;;;;;;5.73;2.80;;;14.70;99.90;;;;;;5049749;28;20210;-60
2023/06/28 01:27:53;;;;;;;2.80;2.30;;;14.60;99.90;;;;;;5048490;28;20206;-61
2023/06/28 01:30:23;;;;;;;8.50;3.50;;;14.60;99.90;;;;;;5057921;28;20295;-60
2023/06/28 01:32:49;;;;;;;4.37;2.53;;;14.60;99.90;;;;;;5053348;28;20198;-60
2023/06/28 01:35:14;;;;;;;5.20;2.53;;;14.60;99.90;;;;;;5047245;28;20685;-61
2023/06/28 01:37:41;;;;;;;6.27;2.73;;;14.60;99.90;;;;;;5050473;28;20198;-59
2023/06/28 01:40:09;;;;;;;3.23;2.20;;;14.60;99.90;;;;;;5050202;28;20235;-60
2023/06/28 01:42:36;;;;;;;8.20;2.77;;;14.60;99.90;;;;;;5048484;28;20202;-61
2023/06/28 01:45:02;;;;;;;7.87;3.03;;;14.60;99.90;;;;;;5049439;28;20664;-60
2023/06/28 01:47:27;;;;;;;3.37;2.57;;;14.50;99.90;;;;;;5049748;28;20202;-60
2023/06/28 01:49:54;;;;;;;4.60;2.70;;;14.50;99.90;;;;;;5049121;28;20221;-59
2023/06/28 01:52:19;;;;;;;10.37;2.80;;;14.50;99.90;;;;;;5049074;28;20194;-60
2023/06/28 01:54:45;;;;;;;5.47;2.27;;;14.50;99.90;;;;;;5047339;28;20201;-61
2023/06/28 01:57:12;;;;;;;5.90;2.63;;;14.50;99.90;;;;;;5049694;28;20267;-61
2023/06/28 01:59:37;;;;;;;5.00;3.30;;;14.60;99.90;;;;;;5048817;28;20194;-61
2023/06/28 02:02:03;;;;;;;8.43;3.40;;;14.60;99.90;;;;;;5050686;28;20921;-61
2023/06/28 02:04:29;;;;;;;7.73;2.83;;;14.60;99.90;;;;;;5049909;28;20243;-61
2023/06/28 02:06:54;;;;;;;6.23;2.63;;;14.70;99.90;;;;;;5049537;28;20206;-61
2023/06/28 02:09:20;;;;;;;8.20;3.70;;;14.60;99.90;;;;;;5047917;28;20713;-63
2023/06/28 02:11:45;;;;;;;8.33;2.73;;;14.60;99.90;;;;;;5048928;28;20198;-61
2023/06/28 02:14:11;;;;;;;7.17;3.73;;;14.60;99.90;;;;;;5049587;28;20202;-61
2023/06/28 02:16:37;;;;;;;6.63;4.20;;;14.60;99.90;;;;;;5048797;28;20701;-62
2023/06/28 02:19:02;;;;;;;5.93;2.87;;;14.60;99.90;;;;;;5048907;28;20187;-61
2023/06/28 02:21:28;;;;;;;6.27;3.23;;;14.60;99.90;;;;;;5048688;28;20403;-60
2023/06/28 02:23:54;;;;;;;5.17;3.40;;;14.60;99.90;;;;;;5042672;28;20209;-60
2023/06/28 02:26:19;;;;;;;8.27;3.23;;;14.50;99.90;;;;;;5048369;28;20203;-62
2023/06/28 02:28:45;;;;;;;7.93;2.67;;;14.60;99.90;;;;;;5049085;28;20202;-61
2023/06/28 02:31:10;;;;;;;4.33;3.13;;;14.50;99.90;;;;;;5052412;28;20723;-60
2023/06/28 02:33:36;;;;;;;6.87;3.00;;;14.50;99.90;;;;;;5049459;28;20186;-65
2023/06/28 02:36:01;;;;;;;6.30;2.70;;;14.60;99.90;;;;;;5057910;28;20207;-64
2023/06/28 02:38:27;;;;;;;6.10;2.17;;;14.60;99.90;;;;;;5046400;28;20197;-64
2023/06/28 02:40:52;;;;;;;4.67;2.80;;;14.60;99.90;;;;;;5047851;28;20285;-65
2023/06/28 02:43:18;;;;;;;9.83;3.33;;;14.60;99.90;;;;;;5048840;28;20202;-61
2023/06/28 02:45:43;;;;;;;4.47;2.67;;;14.60;99.90;;;;;;5050932;28;20546;-60
2023/06/28 02:48:09;;;;;;;4.40;2.80;;;14.70;99.90;;;;;;5053602;28;20538;-61
2023/06/28 02:50:34;;;;;;;9.07;2.53;;;14.70;99.90;;;;;;5042921;28;20214;-60
2023/06/28 02:53:00;;;;;;;4.83;2.80;;;14.70;99.90;;;;;;5049049;28;20204;-61
2023/06/28 02:55:25;;;;;;;5.83;2.77;;;14.80;99.90;;;;;;5051366;28;20284;-61
2023/06/28 02:57:52;;;;;;;7.67;3.40;;;14.70;99.90;;;;;;5046298;28;20282;-61
2023/06/28 03:00:17;;;;;;;7.63;3.23;;;14.70;99.90;;;;;;5048662;28;20285;-61
2023/06/28 03:02:43;;;;;;;7.10;2.97;;;14.70;99.90;;;;;;5048735;28;20285;-61
2023/06/28 03:05:08;;;;;;;9.20;4.10;;;14.80;99.90;;;;;;5045010;28;20219;-61
2023/06/28 03:07:34;;;;;;;10.43;3.27;;;14.70;99.90;;;;;;5049823;28;20194;-61
2023/06/28 03:09:59;;;;;;;6.13;3.17;;;14.70;99.90;;;;;;5052998;28;20225;-61
2023/06/28 03:12:25;;;;;;;6.30;3.47;;;14.70;99.90;;;;;;5047880;28;20264;-61
2023/06/28 03:14:50;;;;;;;6.87;3.03;;;14.70;99.90;;;;;;5047659;28;20199;-61
2023/06/28 03:17:19;;;;;;;5.17;3.37;;;14.60;99.90;;;;;;5045444;28;20219;-61
2023/06/28 03:19:45;;;;;;;6.40;2.93;;;14.70;99.90;;;;;;5048435;28;20244;-61
2023/06/28 03:22:10;;;;;;;8.43;3.37;;;14.60;99.90;;;;;;5049452;28;20607;-61
2023/06/28 03:24:36;;;;;;;13.80;3.17;;;14.60;99.90;;;;;;5045434;28;20240;-61
2023/06/28 03:27:02;;;;;;;7.43;3.00;;;14.60;99.90;;;;;;5048004;28;20515;-63
2023/06/28 03:29:28;;;;;;;6.37;3.17;;;14.60;99.90;;;;;;5046043;28;20301;-61
2023/06/28 03:31:55;;;;;;;4.93;3.17;;;14.60;99.90;;;;;;5048656;28;20336;-61
2023/06/28 03:34:20;;;;;;;7.70;2.90;;;14.60;99.90;;;;;;5048183;28;20210;-60
2023/06/28 03:36:47;;;;;;;3.60;2.43;;;14.60;99.90;;;;;;5048143;28;20216;-61
2023/06/28 03:39:13;;;;;;;6.60;3.10;;;14.60;99.90;;;;;;5042791;28;20243;-60
2023/06/28 03:41:38;;;;;;;8.50;3.10;;;14.60;99.90;;;;;;5045764;28;20206;-61
2023/06/28 03:44:04;;;;;;;3.33;3.03;;;14.60;99.90;;;;;;5050980;28;20199;-60
2023/06/28 03:46:29;;;;;;;8.30;3.23;;;14.70;99.90;;;;;;5044440;28;20262;-60
2023/06/28 03:48:55;;;;;;;8.17;3.93;;;14.70;99.90;;;;;;5056929;28;20549;-60
2023/06/28 03:51:20;;;;;;;4.07;2.17;;;14.70;99.90;;;;;;5045671;28;20222;-60
2023/06/28 03:53:46;;;;;;;5.87;3.10;;;14.70;99.90;;;;;;5048159;28;20250;-61
2023/06/28 03:56:11;;;;;;;9.57;3.30;;;14.60;99.90;;;;;;5046045;28;20202;-60
2023/06/28 03:58:37;;;;;;;5.43;3.27;;;14.60;99.90;;;;;;5046374;28;20198;-60
2023/06/28 04:01:02;;;;;;;8.10;2.97;;;14.60;99.90;;;;;;5046872;28;20198;-60
2023/06/28 04:03:28;;;;;;;5.07;2.47;;;14.60;99.90;;;;;;5047009;28;20289;-60
2023/06/28 04:05:54;;;;;;;7.77;2.67;;;14.60;99.90;;;;;;5046563;28;20203;-61
2023/06/28 04:08:19;;;;;;;6.40;3.03;;;14.60;99.90;;;;;;5046506;28;20217;-61
2023/06/28 04:10:45;;;;;;;6.17;3.10;;;14.70;99.90;;;;;;5054568;28;20202;-61
2023/06/28 04:13:10;;;;;;;5.07;2.53;;;14.60;99.90;;;;;;5056573;28;20194;-61
2023/06/28 04:15:36;;;;;;;4.40;2.70;;;14.70;99.90;;;;;;5056836;28;20197;-61
2023/06/28 04:18:01;;;;;;;4.17;2.73;;;14.80;99.90;;;;;;5056690;28;20237;-61
2023/06/28 04:20:27;;;;;;;5.03;2.97;;;14.70;99.90;;;;;;5055761;28;20200;-60
2023/06/28 04:22:53;;;;;;;6.80;3.30;;;14.70;99.90;;;;;;5053829;28;20243;-60
2023/06/28 04:25:18;;;;;;;4.90;2.47;;;14.60;99.90;;;;;;5055936;28;20202;-60
2023/06/28 04:27:44;;;;;;;4.93;2.30;;;14.70;99.90;;;;;;5049688;28;20201;-60
2023/06/28 04:30:10;;;;;;;6.60;2.97;;;14.70;99.90;;;;;;5046337;28;20669;-59
2023/06/28 04:32:36;;;;;;;3.87;2.27;;;14.70;99.90;;;;;;5051444;28;20194;-60
2023/06/28 04:35:01;;;;;;;4.27;2.77;;;14.80;99.90;;;;;;5056706;28;20288;-59
2023/06/28 04:37:28;;;;;;;8.43;2.93;;;14.90;99.90;;;;;;5054484;28;20951;-61
2023/06/28 04:39:58;;;;;;;6.37;2.33;;;14.90;99.90;;;;;;5055754;28;20226;-61
2023/06/28 04:42:23;;;;;;;8.87;3.97;;;14.80;99.90;;;;;;5056425;28;20767;-60
2023/06/28 04:44:49;;;;;;;4.83;2.30;;;14.80;99.90;;;;;;5057244;28;20202;-61
2023/06/28 04:47:16;;;;;;;11.33;3.37;;;14.90;99.90;;;;;;5050711;28;20819;-64
2023/06/28 04:49:49;;;;;;;5.10;2.67;;;14.90;99.90;;;;;;5044566;28;20262;-67
2023/06/28 04:52:19;;;;;;;5.10;2.77;;;14.90;99.90;;;;;;5048552;28;20216;-67
2023/06/28 04:54:46;;;;;;;5.83;2.23;;;14.90;99.90;;;;;;5043569;28;20202;-60
2023/06/28 04:57:13;;;;;;;7.83;2.43;;;15.00;99.90;;;;;;5055444;28;20285;-60
2023/06/28 04:59:38;;;;;;;7.17;2.93;;;15.00;99.90;;;;;;5053696;28;21021;-60
2023/06/28 05:02:05;;;;;;;5.90;2.87;;;15.00;99.90;;;;;;5052155;28;20291;-60
2023/06/28 05:04:34;;;;;;;6.60;3.10;;;15.00;99.90;;;;;;5056328;28;20217;-59
2023/06/28 05:07:04;;;;;;;10.37;3.00;;;15.10;99.90;;;;;;5055201;28;20212;-60
2023/06/28 05:09:31;;;;;;;6.00;3.30;;;15.00;99.90;;;;;;5053456;28;20210;-59
2023/06/28 05:11:57;;;;;;;7.57;3.37;;;15.00;99.90;;;;;;5056624;28;20221;-59
2023/06/28 05:14:24;;;;;;;6.83;2.70;;;14.90;99.90;;;;;;5055914;28;20668;-59
2023/06/28 05:16:49;;;;;;;9.33;3.40;;;14.90;99.90;;;;;;5056040;28;20312;-59
2023/06/28 05:19:14;;;;;;;5.00;2.67;;;14.90;99.90;;;;;;5055365;28;20284;-60
2023/06/28 05:21:40;;;;;;;5.97;2.73;;;15.00;99.90;;;;;;5055691;28;20224;-59
2023/06/28 05:24:06;;;;;;;8.87;3.00;;;15.00;99.90;;;;;;5056171;28;20198;-59
2023/06/28 05:26:31;;;;;;;5.13;3.10;;;15.00;99.90;;;;;;5055466;28;20247;-59
2023/06/28 05:28:57;;;;;;;3.13;2.57;;;15.00;99.90;;;;;;5057565;28;20202;-59
2023/06/28 05:31:22;;;;;;;12.50;3.13;;;15.10;99.90;;;;;;5058580;28;20206;-59
2023/06/28 05:33:48;;;;;;;6.77;3.00;;;15.10;99.90;;;;;;5048100;28;20202;-59
2023/06/28 05:36:14;;;;;;;6.27;2.87;;;15.00;99.90;;;;;;5050138;28;20194;-59
2023/06/28 05:38:40;;;;;;;3.90;2.30;;;15.00;99.90;;;;;;5047733;28;20198;-59
2023/06/28 05:41:16;;;;;;;5.60;2.60;;;15.00;99.90;;;;;;5048960;28;20680;-59
2023/06/28 05:43:43;;;;;;;4.17;2.43;;;15.10;99.90;;;;;;5047754;28;20195;-59
2023/06/28 05:46:09;;;;;;;7.37;3.57;;;15.20;99.90;;;;;;5050047;28;20249;-59
2023/06/28 05:48:35;;;;;;;4.27;2.93;;;15.30;99.90;;;;;;5052463;28;20677;-58
2023/06/28 05:51:00;;;;;;;8.20;2.60;;;15.50;99.90;;;;;;5056199;28;20210;-59
2023/06/28 05:53:26;;;;;;;9.43;3.20;;;15.70;99.90;;;;;;5050209;28;20199;-60
2023/06/28 05:55:51;;;;;;;3.20;1.77;;;15.70;99.90;;;;;;5048748;28;20199;-60
2023/06/28 05:58:18;;;;;;;5.13;2.33;;;15.70;99.90;;;;;;5049585;28;20201;-60
2023/06/28 06:00:44;;;;;;;6.97;2.63;;;15.80;99.90;;;;;;5047958;28;20198;-59
2023/06/28 06:03:09;;;;;;;3.87;2.00;;;15.80;99.90;;;;;;5049033;28;20683;-60
2023/06/28 06:05:37;;;;;;;7.53;2.93;;;15.90;99.90;;;;;;5048683;28;20661;-61
2023/06/28 06:08:02;;;;;;;5.77;2.53;;;15.90;99.90;;;;;;5048441;28;20661;-61
2023/06/28 06:10:28;;;;;;;4.67;2.70;;;15.90;99.90;;;;;;5054969;28;20217;-60
2023/06/28 06:12:54;;;;;;;5.57;2.20;;;16.10;99.90;;;;;;5045285;28;20748;-61
2023/06/28 06:15:20;;;;;;;4.53;2.00;;;16.10;99.90;;;;;;5049728;28;20230;-61
2023/06/28 06:17:46;;;;;;;4.17;1.90;;;16.20;99.90;;;;;;5049363;28;20836;-60
2023/06/28 06:20:15;;;;;;;6.10;2.30;;;16.30;99.90;;;;;;5049595;28;20229;-61
2023/06/28 06:22:41;;;;;;;3.90;2.33;;;16.30;99.90;;;;;;5048393;28;20276;-61
2023/06/28 06:25:07;;;;;;;5.23;2.60;;;16.30;99.90;;;;;;5048223;28;20332;-61
2023/06/28 06:27:33;;;;;;;3.20;1.93;;;16.30;99.90;;;;;;5048496;28;20279;-61
2023/06/28 06:29:58;;;;;;;5.60;2.00;;;16.30;99.90;;;;;;5056397;28;20213;-61
2023/06/28 06:32:24;;;;;;;5.27;2.07;;;16.30;99.90;;;;;;5061471;28;21004;-62
2023/06/28 06:34:49;;;;;;;5.70;2.27;;;16.40;99.90;;;;;;5053258;28;20206;-61
2023/06/28 06:37:15;;;;;;;2.57;1.83;;;16.40;99.90;;;;;;5058432;28;20288;-61
2023/06/28 06:39:41;;;;;;;5.07;2.27;;;16.40;99.90;;;;;;5058625;28;20234;-61
2023/06/28 06:42:07;;;;;;;5.47;2.07;;;16.40;99.90;;;;;;5058474;28;20290;-60
2023/06/28 06:44:33;;;;;;;1.83;1.60;;;16.50;99.90;;;;;;5057961;28;20234;-60
2023/06/28 06:46:58;;;;;;;6.27;2.10;;;16.60;99.90;;;;;;5054580;28;20202;-61
2023/06/28 06:49:24;;;;;;;8.97;1.90;;;16.60;99.90;;;;;;5057310;28;20194;-60
2023/06/28 06:51:49;;;;;;;5.90;2.17;;;16.60;99.90;;;;;;5058539;28;20198;-60
2023/06/28 06:54:15;;;;;;;4.60;2.30;;;16.60;99.90;;;;;;5056184;28;20312;-61
2023/06/28 06:56:40;;;;;;;3.33;2.03;;;16.70;99.90;;;;;;5057515;28;20561;-61
2023/06/28 06:59:05;;;;;;;7.43;3.53;;;16.70;99.90;;;;;;5057193;28;20198;-60
2023/06/28 07:01:32;;;;;;;5.17;2.10;;;16.60;99.90;;;;;;5055911;28;20213;-61
2023/06/28 07:03:58;;;;;;;3.80;2.43;;;16.60;99.90;;;;;;5049284;28;20210;-64
2023/06/28 07:06:23;;;;;;;2.73;2.03;;;16.60;99.90;;;;;;5054458;28;20210;-68
2023/06/28 07:08:49;;;;;;;5.17;2.73;;;16.60;99.90;;;;;;5057962;28;20221;-68
2023/06/28 07:11:15;;;;;;;4.67;2.20;;;16.70;99.90;;;;;;5057877;28;20217;-68
2023/06/28 07:13:40;;;;;;;6.50;3.30;;;16.90;99.90;;;;;;5054540;28;20198;-67
2023/06/28 07:16:06;;;;;;;4.67;2.43;;;16.90;99.90;;;;;;5047952;28;20202;-67
2023/06/28 07:18:31;;;;;;;5.83;2.37;;;16.80;99.90;;;;;;5058387;28;20220;-68
2023/06/28 07:20:57;;;;;;;8.87;2.50;;;16.90;99.90;;;;;;5053757;28;20221;-68
2023/06/28 07:23:22;;;;;;;4.70;2.43;;;16.90;99.90;;;;;;5064687;28;20228;-68
2023/06/28 07:25:48;;;;;;;3.57;1.60;;;17.00;99.90;;;;;;5057061;28;20675;-68
2023/06/28 07:28:14;;;;;;;3.47;2.00;;;17.10;99.90;;;;;;5052415;28;20213;-69
2023/06/28 07:30:57;;;;;;;2.80;1.80;;;17.30;99.90;;;;;;5054850;28;20209;-67
2023/06/28 07:33:23;;;;;;;6.50;1.67;;;17.40;99.90;;;;;;5055786;28;20441;-69
2023/06/28 07:35:49;;;;;;;3.30;1.90;;;17.50;99.90;;;;;;5055412;28;20233;-73
2023/06/28 07:38:18;;;;;;;3.03;1.77;;;17.60;99.90;;;;;;5057624;28;20198;-68
2023/06/28 07:40:44;;;;;;;4.77;1.90;;;17.60;99.90;;;;;;5045735;28;20334;-71
2023/06/28 07:43:10;;;;;;;3.40;1.60;;;17.60;99.90;;;;;;5051101;28;20212;-67
2023/06/28 07:45:35;;;;;;;3.60;1.80;;;17.80;99.90;;;;;;5043110;28;20587;-73
2023/06/28 07:48:01;;;;;;;4.20;2.23;;;17.90;99.90;;;;;;5044944;28;20210;-73
2023/06/28 07:50:26;;;;;;;3.47;1.57;;;17.90;99.90;;;;;;5056347;28;20214;-69
2023/06/28 07:52:52;;;;;;;2.57;1.57;;;17.80;99.90;;;;;;5056585;28;20197;-70
2023/06/28 07:55:17;;;;;;;5.17;1.57;;;17.90;99.90;;;;;;5056977;28;20206;-69
2023/06/28 07:57:43;;;;;;;5.33;3.07;;;17.90;99.90;;;;;;5056783;28;20661;-69
2023/06/28 08:00:12;;;;;;;7.97;2.33;;;17.90;99.90;;;;;;5058436;28;20939;-72
2023/06/28 08:02:37;;;;;;;2.97;1.83;;;18.00;99.90;;;;;;5055149;28;20229;-69
2023/06/28 08:05:03;;;;;;;2.83;1.63;;;18.00;99.90;;;;;;5057148;28;20656;-69
2023/06/28 08:07:28;;;;;;;2.93;2.27;;;18.10;99.90;;;;;;5056827;28;20217;-67
2023/06/28 08:09:54;;;;;;;4.13;1.47;;;18.10;99.90;;;;;;5058222;28;20213;-69
2023/06/28 08:12:19;;;;;;;4.43;1.40;;;18.20;99.90;;;;;;5053449;28;20765;-71
2023/06/28 08:14:45;;;;;;;1.83;1.53;;;18.30;99.90;;;;;;5054782;28;20567;-72
2023/06/28 08:17:11;;;;;;;4.47;1.87;;;18.40;99.90;;;;;;5056486;28;20201;-69
2023/06/28 08:19:36;;;;;;;4.40;2.30;;;18.60;99.90;;;;;;5056739;28;20193;-69
2023/06/28 08:22:03;;;;;;;3.33;1.50;;;18.80;99.90;;;;;;5056756;28;20212;-69
2023/06/28 08:24:29;;;;;;;4.20;1.60;;;18.60;99.90;;;;;;5055706;28;20222;-69
2023/06/28 08:26:55;;;;;;;4.57;2.17;;;18.50;99.90;;;;;;5055271;28;20326;-68
2023/06/28 08:29:21;;;;;;;5.13;1.80;;;18.50;99.90;;;;;;5053388;28;20302;-69
2023/06/28 08:31:47;;;;;;;2.37;1.50;;;18.50;99.90;;;;;;5056070;28;20194;-67
2023/06/28 08:34:12;;;;;;;7.17;1.97;;;18.60;99.90;;;;;;5056376;28;20229;-69
2023/06/28 08:36:37;;;;;;;3.83;1.50;;;18.70;99.90;;;;;;5056312;28;20203;-69
2023/06/28 08:39:03;;;;;;;3.10;1.73;;;18.90;99.90;;;;;;5060940;28;20326;-72
2023/06/28 08:41:30;;;;;;;7.83;2.50;;;18.80;99.90;;;;;;5056476;28;20218;-69
2023/06/28 08:43:59;;;;;;;4.23;1.60;;;18.60;99.90;;;;;;5054459;28;20206;-69
2023/06/28 08:46:26;;;;;;;2.73;1.70;;;18.60;99.90;;;;;;5056332;28;20323;-69
2023/06/28 08:48:52;;;;;;;2.27;2.03;;;18.60;99.90;;;;;;5056577;28;20651;-67
2023/06/28 08:51:18;;;;;;;2.10;1.57;;;18.70;99.90;;;;;;5055919;28;20219;-71
2023/06/28 08:53:46;;;;;;;4.93;1.83;;;18.80;99.90;;;;;;5054359;28;20235;-70
2023/06/28 08:56:12;;;;;;;1.43;1.33;;;18.90;99.90;;;;;;5061768;28;20612;-70
2023/06/28 08:58:38;;;;;;;3.80;1.90;;;18.90;99.90;;;;;;5064180;28;20189;-69
2023/06/28 09:01:04;;;;;;;2.37;2.17;;;18.90;99.90;;;;;;5057938;28;20285;-70
2023/06/28 09:03:31;;;;;;;3.13;1.83;;;19.00;99.90;;;;;;5051729;28;20206;-69
2023/06/28 09:05:56;;;;;;;5.93;2.20;;;19.00;99.90;;;;;;5060134;28;20267;-73
2023/06/28 09:08:22;;;;;;;4.20;2.07;;;18.90;99.90;;;;;;5059636;28;20668;-74
2023/06/28 09:10:48;;;;;;;3.97;1.80;;;19.00;99.90;;;;;;5058821;28;20332;-72
2023/06/28 09:13:19;;;;;;;1.80;1.57;;;19.10;99.90;;;;;;5061664;28;20202;-71
2023/06/28 09:15:46;;;;;;;1.87;1.30;;;19.20;99.90;;;;;;5060029;28;20198;-73
2023/06/28 09:18:11;;;;;;;4.57;2.37;;;19.20;99.90;;;;;;5062404;28;20211;-73
2023/06/28 09:20:37;;;;;;;4.17;1.93;;;19.30;99.90;;;;;;5056744;28;20217;-69
2023/06/28 09:23:04;;;;;;;4.13;1.63;;;19.40;99.90;;;;;;5059514;28;20198;-67
2023/06/28 09:25:31;;;;;;;4.87;1.50;;;19.60;99.90;;;;;;5059292;28;20198;-68
2023/06/28 09:27:58;;;;;;;5.07;1.73;;;19.80;99.90;;;;;;5059424;28;20475;-68
2023/06/28 09:30:23;;;;;;;3.30;1.60;;;19.80;99.90;;;;;;5058870;28;20545;-68
2023/06/28 09:32:50;;;;;;;1.70;1.23;;;19.70;99.90;;;;;;5058491;28;20190;-68
2023/06/28 09:35:21;;;;;;;3.00;1.67;;;19.70;99.90;;;;;;5057024;28;20235;-68
2023/06/28 09:37:54;;;;;;;1.87;1.50;;;19.70;99.90;;;;;;5057664;28;20215;-68
2023/06/28 09:40:20;;;;;;;5.40;1.40;;;19.70;99.90;;;;;;5059248;28;20226;-68
2023/06/28 09:42:47;;;;;;;3.87;1.23;;;19.90;99.90;;;;;;5057245;28;20201;-70
2023/06/28 09:45:24;;;;;;;1.53;1.37;;;19.90;99.90;;;;;;5058664;28;20218;-68
2023/06/28 09:48:00;;;;;;;7.43;1.27;;;20.00;99.90;;;;;;5060511;28;20213;-67
2023/06/28 09:50:37;;;;;;;2.97;1.80;;;19.90;99.90;;;;;;5052549;28;20227;-68
2023/06/28 09:53:07;;;;;;;1.90;1.67;;;19.80;99.90;;;;;;5058761;28;20205;-70
2023/06/28 09:55:32;;;;;;;3.03;1.20;;;20.00;99.90;;;;;;5056927;28;20304;-71
2023/06/28 09:57:59;;;;;;;2.93;1.57;;;20.30;99.90;;;;;;5057657;28;20216;-72
2023/06/28 10:00:28;;;;;;;3.23;1.90;;;20.40;99.80;;;;;;5060909;28;20681;-69
2023/06/28 10:02:55;;;;;;;2.77;1.67;;;20.40;99.90;;;;;;5057140;28;20591;-69
2023/06/28 10:05:20;;;;;;;2.73;2.20;;;20.30;99.90;;;;;;5057067;28;20644;-69
2023/06/28 10:07:48;;;;;;;3.90;1.30;;;20.10;99.90;;;;;;5058966;28;20260;-68
2023/06/28 10:10:13;;;;;;;3.43;1.47;;;20.10;99.90;;;;;;5058318;28;20240;-68
2023/06/28 10:12:40;;;;;;;4.40;1.43;;;20.20;99.90;;;;;;5063002;28;20689;-70
2023/06/28 10:15:10;;;;;;;3.73;1.60;;;20.40;99.50;;;;;;5048456;28;20199;-71
2023/06/28 10:17:37;;;;;;;4.60;1.60;;;20.50;99.90;;;;;;5046731;28;20235;-69
2023/06/28 10:20:04;;;;;;;3.33;1.47;;;20.60;98.90;;;;;;5049764;28;20612;-69
2023/06/28 10:22:30;;;;;;;4.37;1.67;;;20.40;98.80;;;;;;5049286;28;20289;-69
2023/06/28 10:24:57;;;;;;;4.73;1.70;;;20.50;99.30;;;;;;5049721;28;20396;-69
2023/06/28 10:27:23;;;;;;;3.77;2.87;;;20.70;98.90;;;;;;5046668;28;20207;-69
2023/06/28 10:29:51;;;;;;;1.90;1.80;;;20.80;99.80;;;;;;5048010;28;20231;-74
2023/06/28 10:32:16;;;;;;;4.47;1.47;;;20.80;98.60;;;;;;5047969;28;20215;-68
2023/06/28 10:34:45;;;;;;;5.93;1.73;;;20.80;99.70;;;;;;5050943;28;20213;-72
2023/06/28 10:37:11;;;;;;;2.80;1.67;;;20.80;99.80;;;;;;5044876;28;20197;-70
2023/06/28 10:39:38;;;;;;;2.17;1.30;;;20.50;98.00;;;;;;5047346;28;20691;-70
2023/06/28 10:42:04;;;;;;;5.00;2.17;;;20.60;99.20;;;;;;5057544;28;20199;-71
2023/06/28 10:44:30;;;;;;;8.93;4.33;;;20.80;97.50;;;;;;5067949;28;20245;-72
2023/06/28 10:47:10;;;;;;;3.33;2.43;;;20.80;98.40;;;;;;5066557;28;20204;-71
2023/06/28 10:49:38;;;;;;;3.03;1.70;;;20.80;98.70;;;;;;5065974;28;20210;-72
2023/06/28 10:52:12;;;;;;;3.43;1.87;;;20.70;98.60;;;;;;5063693;28;20205;-69
2023/06/28 10:54:37;;;;;;;3.90;1.57;;;20.60;98.60;;;;;;5062950;28;20215;-69
2023/06/28 10:57:09;;;;;;;2.37;1.67;;;20.50;98.50;;;;;;5066339;28;20630;-67
2023/06/28 10:59:36;;;;;;;2.93;1.40;;;20.50;99.50;;;;;;5066217;28;20328;-68
2023/06/28 11:02:02;;;;;;;3.87;1.47;;;20.60;98.50;;;;;;5059690;28;20239;-66
2023/06/28 11:04:27;;;;;;;4.27;1.33;;;20.60;99.30;;;;;;5055719;28;20663;-67
2023/06/28 11:07:19;;;;;;;2.87;2.03;;;20.90;97.80;;;;;;5057496;28;20233;-71
2023/06/28 11:10:09;;;;;;;3.93;2.43;;;20.80;97.80;;;;;;5052315;28;20220;-70
2023/06/28 11:12:34;;;;;;;2.07;1.50;;;20.60;98.20;;;;;;5055134;28;20207;-68
2023/06/28 11:15:13;;;;;;;2.17;1.50;;;20.60;98.10;;;;;;5057032;28;20673;-68
2023/06/28 11:17:39;;;;;;;2.87;1.73;;;20.60;98.40;;;;;;5054937;28;20201;-68
2023/06/28 11:20:13;;;;;;;1.53;1.43;;;20.80;99.50;;;;;;5060283;28;20609;-68
2023/06/28 11:22:52;;;;;;;3.13;1.60;;;21.30;99.10;;;;;;5054313;28;20223;-67
2023/06/28 11:25:20;;;;;;;2.73;1.60;;;21.50;97.90;;;;;;5047305;28;20248;-68
2023/06/28 11:27:46;;;;;;;3.63;1.70;;;21.50;97.90;;;;;;5055970;28;20281;-67
2023/06/28 11:30:12;;;;;;;3.13;1.50;;;21.40;98.00;;;;;;5056681;28;20228;-68
2023/06/28 11:32:38;;;;;;;4.03;1.93;;;21.40;98.40;;;;;;5055051;28;20198;-67
2023/06/28 11:35:05;;;;;;;3.83;1.50;;;21.50;97.20;;;;;;5064536;28;20209;-67
2023/06/28 11:37:31;;;;;;;4.47;1.80;;;21.60;97.30;;;;;;5051992;28;20267;-70
2023/06/28 11:39:58;;;;;;;3.43;1.50;;;21.80;97.50;;;;;;5057173;28;20229;-67
2023/06/28 11:42:24;;;;;;;1.87;1.30;;;22.00;97.00;;;;;;5056170;28;20241;-66
2023/06/28 11:44:51;;;;;;;3.70;1.67;;;21.90;97.30;;;;;;5056015;28;20243;-66
2023/06/28 11:47:19;;;;;;;4.80;1.30;;;21.80;96.10;;;;;;5056241;28;20233;-66
2023/06/28 11:49:46;;;;;;;3.73;1.60;;;21.60;96.90;;;;;;5056042;28;20206;-66
2023/06/28 11:52:14;;;;;;;1.40;1.30;;;21.70;96.40;;;;;;5057163;28;20523;-67
2023/06/28 11:54:42;;;;;;;3.43;1.77;;;21.90;97.30;;;;;;5065078;28;20192;-68
2023/06/28 11:57:08;;;;;;;2.83;1.60;;;22.20;97.10;;;;;;5065266;28;20295;-69
2023/06/28 11:59:34;;;;;;;2.47;1.67;;;22.30;96.30;;;;;;5065542;28;20578;-67
2023/06/28 12:02:05;;;;;;;2.77;1.60;;;22.40;96.30;;;;;;5065599;28;20192;-67
2023/06/28 12:04:31;;;;;;;7.50;5.73;;;22.10;95.00;;;;;;5064776;28;20327;-68
2023/06/28 12:06:59;;;;;;;3.23;2.33;;;21.90;95.80;;;;;;5064610;28;20212;-68
2023/06/28 12:09:27;;;;;;;1.30;1.20;;;21.90;95.80;;;;;;5062950;28;20790;-69
2023/06/28 12:12:02;;;;;;;2.40;1.63;;;22.00;97.10;;;;;;5058943;28;20247;-67
2023/06/28 12:14:29;;;;;;;4.87;2.00;;;22.30;95.90;;;;;;5065371;28;20252;-67
2023/06/28 12:16:56;;;;;;;3.20;2.23;;;22.40;96.20;;;;;;5055206;28;20902;-67
2023/06/28 12:19:27;;;;;;;5.77;1.90;;;22.20;93.70;;;;;;5057571;28;20238;-67
2023/06/28 12:21:53;;;;;;;1.73;1.57;;;22.10;96.10;;;;;;5044613;28;20211;-67
2023/06/28 12:24:28;;;;;;;4.53;1.60;;;22.30;94.30;;;;;;5049100;28;20223;-70
2023/06/28 12:26:56;;;;;;;6.13;2.00;;;22.40;96.40;;;;;;5045873;28;20205;-70
2023/06/28 12:29:23;;;;;;;3.53;1.47;;;23.00;93.90;;;;;;5044472;28;20202;-67
2023/06/28 12:31:50;;;;;;;1.97;1.30;;;23.20;92.80;;;;;;5048237;28;20940;-68
2023/06/28 12:34:24;;;;;;;3.77;1.47;;;23.40;94.00;;;;;;5042503;28;20218;-68
2023/06/28 12:37:01;;;;;;;2.97;1.43;;;23.40;92.90;;;;;;5042368;28;20229;-68
2023/06/28 12:39:36;;;;;;;2.33;1.40;;;23.30;91.60;;;;;;5046373;28;20236;-68
2023/06/28 12:42:10;;;;;;;4.73;1.83;;;23.40;92.40;;;;;;5041903;28;20199;-68